sensor_id;sensor_type;location;lat;lon;timestamp;temperature;humidity
34135;DHT22;20410;55.578;12.968;2023-05-10T00:00:33;12.00;1.00
34135;DHT22;20410;55.578;12.968;2023-05-10T00:02:59;12.00;1.00
34135;DHT22;20410;55.578;12.968;2023-05-10T00:05:24;12.00;1.00
34135;DHT22;20410;55.578;12.968;2023-05-10T00:07:50;12.00;1.00
34135;DHT22;20410;55.578;12.968;2023-05-10T00:10:16;12.00;1.00
34135;DHT22;20410;55.578;12.968;2023-05-10T00:12:42;12.00;1.00
34135;DHT22;20410;55.578;12.968;2023-05-10T00:15:09;12.00;1.00
34135;DHT22;20410;55.578;12.968;2023-05-10T00:17:34;12.00;1.00
34135;DHT22;20410;55.578;12.968;2023-05-10T00:20:00;12.00;1.00
34135;DHT22;20410;55.578;12.968;2023-05-10T00:22:26;12.00;1.00
34135;DHT22;20410;55.578;12.968;2023-05-10T00:24:51;12.00;1.00
34135;DHT22;20410;55.578;12.968;2023-05-10T00:27:17;12.00;1.00
34135;DHT22;20410;55.578;12.968;2023-05-10T00:29:42;12.00;1.00
34135;DHT22;20410;55.578;12.968;2023-05-10T00:32:08;12.00;1.00
34135;DHT22;20410;55.578;12.968;2023-05-10T00:34:34;11.90;1.00
34135;DHT22;20410;55.578;12.968;2023-05-10T00:36:59;11.90;1.00
34135;DHT22;20410;55.578;12.968;2023-05-10T00:39:25;11.90;1.00
34135;DHT22;20410;55.578;12.968;2023-05-10T00:41:52;11.90;1.00
34135;DHT22;20410;55.578;12.968;2023-05-10T00:44:17;11.90;1.00
34135;DHT22;20410;55.578;12.968;2023-05-10T00:46:44;11.90;1.00
34135;DHT22;20410;55.578;12.968;2023-05-10T00:49:10;11.90;1.00
34135;DHT22;20410;55.578;12.968;2023-05-10T00:51:36;11.90;1.00
34135;DHT22;20410;55.578;12.968;2023-05-10T00:54:02;11.90;1.00
34135;DHT22;20410;55.578;12.968;2023-05-10T00:56:28;11.80;1.00
34135;DHT22;20410;55.578;12.968;2023-05-10T00:58:55;11.80;1.00
34135;DHT22;20410;55.578;12.968;2023-05-10T01:01:21;11.80;1.00
34135;DHT22;20410;55.578;12.968;2023-05-10T01:03:47;11.80;1.00
34135;DHT22;20410;55.578;12.968;2023-05-10T01:06:13;11.80;1.00
34135;DHT22;20410;55.578;12.968;2023-05-10T01:08:39;11.80;1.00
34135;DHT22;20410;55.578;12.968;2023-05-10T01:11:04;11.80;1.00
34135;DHT22;20410;55.578;12.968;2023-05-10T01:13:35;11.80;1.00
34135;DHT22;20410;55.578;12.968;2023-05-10T01:16:02;11.80;1.00
34135;DHT22;20410;55.578;12.968;2023-05-10T01:18:29;11.70;1.00
34135;DHT22;20410;55.578;12.968;2023-05-10T01:21:22;11.70;1.00
34135;DHT22;20410;55.578;12.968;2023-05-10T01:35:01;11.70;1.00
34135;DHT22;20410;55.578;12.968;2023-05-10T01:37:42;11.60;1.00
34135;DHT22;20410;55.578;12.968;2023-05-10T01:40:26;11.60;1.00
34135;DHT22;20410;55.578;12.968;2023-05-10T01:43:00;11.60;1.00
34135;DHT22;20410;55.578;12.968;2023-05-10T01:45:50;11.50;1.00
34135;DHT22;20410;55.578;12.968;2023-05-10T01:48:18;11.50;1.00
34135;DHT22;20410;55.578;12.968;2023-05-10T01:50:46;11.60;1.00
34135;DHT22;20410;55.578;12.968;2023-05-10T01:53:14;11.50;1.00
34135;DHT22;20410;55.578;12.968;2023-05-10T01:55:48;11.50;1.00
34135;DHT22;20410;55.578;12.968;2023-05-10T01:58:19;11.50;1.00
34135;DHT22;20410;55.578;12.968;2023-05-10T02:00:47;11.50;1.00
34135;DHT22;20410;55.578;12.968;2023-05-10T02:03:15;11.40;1.00
34135;DHT22;20410;55.578;12.968;2023-05-10T02:05:41;11.40;1.00
34135;DHT22;20410;55.578;12.968;2023-05-10T02:08:10;11.40;1.00
34135;DHT22;20410;55.578;12.968;2023-05-10T02:10:37;11.40;1.00
34135;DHT22;20410;55.578;12.968;2023-05-10T02:13:05;11.40;1.00
34135;DHT22;20410;55.578;12.968;2023-05-10T02:15:32;11.40;1.00
34135;DHT22;20410;55.578;12.968;2023-05-10T02:18:00;11.40;1.00
34135;DHT22;20410;55.578;12.968;2023-05-10T02:20:26;11.30;1.00
34135;DHT22;20410;55.578;12.968;2023-05-10T02:22:54;11.30;1.00
34135;DHT22;20410;55.578;12.968;2023-05-10T02:25:21;11.30;1.00
34135;DHT22;20410;55.578;12.968;2023-05-10T02:27:48;11.40;1.00
34135;DHT22;20410;55.578;12.968;2023-05-10T02:30:14;11.40;1.00
34135;DHT22;20410;55.578;12.968;2023-05-10T02:32:41;11.40;1.00
34135;DHT22;20410;55.578;12.968;2023-05-10T02:35:08;11.30;1.00
34135;DHT22;20410;55.578;12.968;2023-05-10T02:37:36;11.30;1.00
34135;DHT22;20410;55.578;12.968;2023-05-10T02:40:03;11.30;1.00
34135;DHT22;20410;55.578;12.968;2023-05-10T02:42:32;11.30;1.00
34135;DHT22;20410;55.578;12.968;2023-05-10T02:45:01;11.30;1.00
34135;DHT22;20410;55.578;12.968;2023-05-10T02:47:28;11.30;1.00
34135;DHT22;20410;55.578;12.968;2023-05-10T02:49:54;11.30;1.00
34135;DHT22;20410;55.578;12.968;2023-05-10T02:52:25;11.20;1.00
34135;DHT22;20410;55.578;12.968;2023-05-10T02:54:55;11.20;1.00
34135;DHT22;20410;55.578;12.968;2023-05-10T02:57:33;11.20;1.00
34135;DHT22;20410;55.578;12.968;2023-05-10T03:00:00;11.20;1.00
34135;DHT22;20410;55.578;12.968;2023-05-10T03:02:26;11.20;1.00
34135;DHT22;20410;55.578;12.968;2023-05-10T03:04:52;11.20;1.00
34135;DHT22;20410;55.578;12.968;2023-05-10T03:07:18;11.20;1.00
34135;DHT22;20410;55.578;12.968;2023-05-10T03:09:47;11.20;1.00
34135;DHT22;20410;55.578;12.968;2023-05-10T03:14:57;11.20;1.00
34135;DHT22;20410;55.578;12.968;2023-05-10T03:17:30;11.10;1.00
34135;DHT22;20410;55.578;12.968;2023-05-10T03:20:04;11.10;1.00
34135;DHT22;20410;55.578;12.968;2023-05-10T03:22:36;11.10;1.00
34135;DHT22;20410;55.578;12.968;2023-05-10T03:25:05;11.10;1.00
34135;DHT22;20410;55.578;12.968;2023-05-10T03:27:32;11.10;1.00
34135;DHT22;20410;55.578;12.968;2023-05-10T03:29:59;11.10;1.00
34135;DHT22;20410;55.578;12.968;2023-05-10T03:32:28;11.20;1.00
34135;DHT22;20410;55.578;12.968;2023-05-10T03:34:54;11.20;1.00
34135;DHT22;20410;55.578;12.968;2023-05-10T03:37:20;11.20;1.00
34135;DHT22;20410;55.578;12.968;2023-05-10T03:39:45;11.20;1.00
34135;DHT22;20410;55.578;12.968;2023-05-10T03:42:11;11.20;1.00
34135;DHT22;20410;55.578;12.968;2023-05-10T03:44:40;11.20;1.00
34135;DHT22;20410;55.578;12.968;2023-05-10T03:47:06;11.30;1.00
34135;DHT22;20410;55.578;12.968;2023-05-10T03:49:31;11.30;1.00
34135;DHT22;20410;55.578;12.968;2023-05-10T03:51:57;11.40;1.00
34135;DHT22;20410;55.578;12.968;2023-05-10T03:54:23;11.50;1.00
34135;DHT22;20410;55.578;12.968;2023-05-10T03:56:48;11.50;1.00
34135;DHT22;20410;55.578;12.968;2023-05-10T03:59:14;11.50;1.00
34135;DHT22;20410;55.578;12.968;2023-05-10T04:01:39;11.60;1.00
34135;DHT22;20410;55.578;12.968;2023-05-10T04:04:05;11.60;1.00
34135;DHT22;20410;55.578;12.968;2023-05-10T04:06:31;11.70;1.00
34135;DHT22;20410;55.578;12.968;2023-05-10T04:08:57;11.70;1.00
34135;DHT22;20410;55.578;12.968;2023-05-10T04:11:25;11.80;1.00
34135;DHT22;20410;55.578;12.968;2023-05-10T04:13:50;11.90;1.00
34135;DHT22;20410;55.578;12.968;2023-05-10T04:16:16;11.90;1.00
34135;DHT22;20410;55.578;12.968;2023-05-10T04:18:42;11.90;1.00
34135;DHT22;20410;55.578;12.968;2023-05-10T04:21:13;11.90;1.00
34135;DHT22;20410;55.578;12.968;2023-05-10T04:23:39;12.00;1.00
34135;DHT22;20410;55.578;12.968;2023-05-10T04:26:05;12.00;1.00
34135;DHT22;20410;55.578;12.968;2023-05-10T04:28:31;12.10;1.00
34135;DHT22;20410;55.578;12.968;2023-05-10T04:31:03;12.10;1.00
34135;DHT22;20410;55.578;12.968;2023-05-10T04:33:29;12.10;1.00
34135;DHT22;20410;55.578;12.968;2023-05-10T04:35:55;12.20;1.00
34135;DHT22;20410;55.578;12.968;2023-05-10T04:38:20;12.20;1.00
34135;DHT22;20410;55.578;12.968;2023-05-10T04:40:46;12.30;1.00
34135;DHT22;20410;55.578;12.968;2023-05-10T04:43:11;12.30;1.00
34135;DHT22;20410;55.578;12.968;2023-05-10T04:45:37;12.40;1.00
34135;DHT22;20410;55.578;12.968;2023-05-10T04:48:03;12.40;1.00
34135;DHT22;20410;55.578;12.968;2023-05-10T04:50:28;12.50;1.00
34135;DHT22;20410;55.578;12.968;2023-05-10T04:52:54;12.60;1.00
34135;DHT22;20410;55.578;12.968;2023-05-10T04:55:19;12.60;1.00
34135;DHT22;20410;55.578;12.968;2023-05-10T04:57:45;12.60;1.00
34135;DHT22;20410;55.578;12.968;2023-05-10T05:00:11;12.70;1.00
34135;DHT22;20410;55.578;12.968;2023-05-10T05:02:37;12.80;1.00
34135;DHT22;20410;55.578;12.968;2023-05-10T05:05:02;12.90;1.00
34135;DHT22;20410;55.578;12.968;2023-05-10T05:07:28;12.90;1.00
34135;DHT22;20410;55.578;12.968;2023-05-10T05:09:54;12.90;1.00
34135;DHT22;20410;55.578;12.968;2023-05-10T05:12:19;13.00;1.00
34135;DHT22;20410;55.578;12.968;2023-05-10T05:14:45;13.10;1.00
34135;DHT22;20410;55.578;12.968;2023-05-10T05:17:10;13.20;1.00
34135;DHT22;20410;55.578;12.968;2023-05-10T05:19:36;13.20;1.00
34135;DHT22;20410;55.578;12.968;2023-05-10T05:22:02;13.30;1.00
34135;DHT22;20410;55.578;12.968;2023-05-10T05:24:27;13.30;1.00
34135;DHT22;20410;55.578;12.968;2023-05-10T05:26:53;13.30;1.00
34135;DHT22;20410;55.578;12.968;2023-05-10T05:29:18;13.40;1.00
34135;DHT22;20410;55.578;12.968;2023-05-10T05:31:44;13.40;1.00
34135;DHT22;20410;55.578;12.968;2023-05-10T05:34:09;13.60;1.00
34135;DHT22;20410;55.578;12.968;2023-05-10T05:36:38;13.60;1.00
34135;DHT22;20410;55.578;12.968;2023-05-10T05:39:04;13.70;1.00
34135;DHT22;20410;55.578;12.968;2023-05-10T05:41:30;13.70;1.00
34135;DHT22;20410;55.578;12.968;2023-05-10T05:43:55;13.80;1.00
34135;DHT22;20410;55.578;12.968;2023-05-10T05:46:21;13.90;1.00
34135;DHT22;20410;55.578;12.968;2023-05-10T05:48:46;13.90;1.00
34135;DHT22;20410;55.578;12.968;2023-05-10T05:51:12;14.00;1.00
34135;DHT22;20410;55.578;12.968;2023-05-10T05:53:37;14.00;1.00
34135;DHT22;20410;55.578;12.968;2023-05-10T05:56:03;14.00;1.00
34135;DHT22;20410;55.578;12.968;2023-05-10T05:58:29;14.10;1.00
34135;DHT22;20410;55.578;12.968;2023-05-10T06:00:55;14.20;1.00
34135;DHT22;20410;55.578;12.968;2023-05-10T06:03:20;14.20;1.00
34135;DHT22;20410;55.578;12.968;2023-05-10T06:05:46;14.20;1.00
34135;DHT22;20410;55.578;12.968;2023-05-10T06:08:12;14.30;1.00
34135;DHT22;20410;55.578;12.968;2023-05-10T06:10:37;14.40;1.00
34135;DHT22;20410;55.578;12.968;2023-05-10T06:13:03;14.40;1.00
34135;DHT22;20410;55.578;12.968;2023-05-10T06:15:29;14.50;1.00
34135;DHT22;20410;55.578;12.968;2023-05-10T06:17:55;14.60;1.00
34135;DHT22;20410;55.578;12.968;2023-05-10T06:20:20;14.60;1.00
34135;DHT22;20410;55.578;12.968;2023-05-10T06:22:46;14.70;1.00
34135;DHT22;20410;55.578;12.968;2023-05-10T06:25:12;14.80;1.00
34135;DHT22;20410;55.578;12.968;2023-05-10T06:27:37;14.90;1.00
34135;DHT22;20410;55.578;12.968;2023-05-10T06:30:04;14.90;1.00
34135;DHT22;20410;55.578;12.968;2023-05-10T06:32:30;14.90;1.00
34135;DHT22;20410;55.578;12.968;2023-05-10T06:34:55;15.10;1.00
34135;DHT22;20410;55.578;12.968;2023-05-10T06:37:21;15.20;1.00
34135;DHT22;20410;55.578;12.968;2023-05-10T06:39:46;15.10;1.00
34135;DHT22;20410;55.578;12.968;2023-05-10T06:42:12;15.20;1.00
34135;DHT22;20410;55.578;12.968;2023-05-10T06:44:37;15.10;1.00
34135;DHT22;20410;55.578;12.968;2023-05-10T06:47:03;15.20;1.00
34135;DHT22;20410;55.578;12.968;2023-05-10T06:49:29;15.30;1.00
34135;DHT22;20410;55.578;12.968;2023-05-10T06:51:57;15.40;1.00
34135;DHT22;20410;55.578;12.968;2023-05-10T06:54:23;15.50;1.00
34135;DHT22;20410;55.578;12.968;2023-05-10T06:56:49;15.60;1.00
34135;DHT22;20410;55.578;12.968;2023-05-10T06:59:14;15.60;1.00
34135;DHT22;20410;55.578;12.968;2023-05-10T07:01:41;15.70;1.00
34135;DHT22;20410;55.578;12.968;2023-05-10T07:04:07;15.60;1.00
34135;DHT22;20410;55.578;12.968;2023-05-10T07:06:33;15.60;1.00
34135;DHT22;20410;55.578;12.968;2023-05-10T07:08:59;15.70;1.00
34135;DHT22;20410;55.578;12.968;2023-05-10T07:11:25;15.80;1.00
34135;DHT22;20410;55.578;12.968;2023-05-10T07:13:52;16.00;1.00
34135;DHT22;20410;55.578;12.968;2023-05-10T07:16:17;16.10;1.00
34135;DHT22;20410;55.578;12.968;2023-05-10T07:18:43;16.00;1.00
34135;DHT22;20410;55.578;12.968;2023-05-10T07:21:08;16.10;1.00
34135;DHT22;20410;55.578;12.968;2023-05-10T07:23:34;16.20;1.00
34135;DHT22;20410;55.578;12.968;2023-05-10T07:26:00;16.30;1.00
34135;DHT22;20410;55.578;12.968;2023-05-10T07:28:25;16.40;1.00
34135;DHT22;20410;55.578;12.968;2023-05-10T07:30:51;16.60;1.00
34135;DHT22;20410;55.578;12.968;2023-05-10T07:33:16;16.80;1.00
34135;DHT22;20410;55.578;12.968;2023-05-10T07:35:43;16.80;1.00
34135;DHT22;20410;55.578;12.968;2023-05-10T07:38:08;16.90;1.00
34135;DHT22;20410;55.578;12.968;2023-05-10T07:40:36;16.90;1.00
34135;DHT22;20410;55.578;12.968;2023-05-10T07:43:01;17.00;1.00
34135;DHT22;20410;55.578;12.968;2023-05-10T07:45:27;17.00;1.00
34135;DHT22;20410;55.578;12.968;2023-05-10T07:47:53;17.00;1.00
34135;DHT22;20410;55.578;12.968;2023-05-10T07:50:19;17.00;1.00
34135;DHT22;20410;55.578;12.968;2023-05-10T07:52:44;17.10;1.00
34135;DHT22;20410;55.578;12.968;2023-05-10T07:55:10;17.10;1.00
34135;DHT22;20410;55.578;12.968;2023-05-10T07:57:36;17.20;1.00
34135;DHT22;20410;55.578;12.968;2023-05-10T08:00:02;17.30;99.90
34135;DHT22;20410;55.578;12.968;2023-05-10T08:02:28;17.40;1.00
34135;DHT22;20410;55.578;12.968;2023-05-10T08:04:54;17.40;99.90
34135;DHT22;20410;55.578;12.968;2023-05-10T08:07:21;17.30;99.90
34135;DHT22;20410;55.578;12.968;2023-05-10T08:09:46;17.40;99.90
34135;DHT22;20410;55.578;12.968;2023-05-10T08:12:12;17.40;99.90
34135;DHT22;20410;55.578;12.968;2023-05-10T08:14:37;17.40;1.00
34135;DHT22;20410;55.578;12.968;2023-05-10T08:17:03;17.40;99.90
34135;DHT22;20410;55.578;12.968;2023-05-10T08:19:29;17.60;1.00
34135;DHT22;20410;55.578;12.968;2023-05-10T08:21:54;17.70;99.90
34135;DHT22;20410;55.578;12.968;2023-05-10T08:24:23;17.60;99.90
34135;DHT22;20410;55.578;12.968;2023-05-10T08:26:49;17.70;1.00
34135;DHT22;20410;55.578;12.968;2023-05-10T08:29:14;17.70;99.90
34135;DHT22;20410;55.578;12.968;2023-05-10T08:31:40;17.90;99.90
34135;DHT22;20410;55.578;12.968;2023-05-10T08:34:06;18.10;99.90
34135;DHT22;20410;55.578;12.968;2023-05-10T08:36:32;18.00;99.90
34135;DHT22;20410;55.578;12.968;2023-05-10T08:38:58;17.90;99.90
34135;DHT22;20410;55.578;12.968;2023-05-10T08:41:24;18.10;99.90
34135;DHT22;20410;55.578;12.968;2023-05-10T08:43:52;18.20;99.90
34135;DHT22;20410;55.578;12.968;2023-05-10T08:46:19;18.40;99.90
34135;DHT22;20410;55.578;12.968;2023-05-10T08:48:45;18.50;99.90
34135;DHT22;20410;55.578;12.968;2023-05-10T08:51:17;18.40;99.90
34135;DHT22;20410;55.578;12.968;2023-05-10T08:53:44;18.60;99.90
34135;DHT22;20410;55.578;12.968;2023-05-10T08:56:10;18.50;99.90
34135;DHT22;20410;55.578;12.968;2023-05-10T08:58:36;18.60;99.90
34135;DHT22;20410;55.578;12.968;2023-05-10T09:01:03;18.60;99.90
34135;DHT22;20410;55.578;12.968;2023-05-10T09:03:29;18.70;99.90
34135;DHT22;20410;55.578;12.968;2023-05-10T09:05:55;18.40;99.90
34135;DHT22;20410;55.578;12.968;2023-05-10T09:08:23;18.40;99.90
34135;DHT22;20410;55.578;12.968;2023-05-10T09:10:51;18.30;99.90
34135;DHT22;20410;55.578;12.968;2023-05-10T09:13:17;18.40;99.90
34135;DHT22;20410;55.578;12.968;2023-05-10T09:15:44;18.40;99.90
34135;DHT22;20410;55.578;12.968;2023-05-10T09:18:11;18.40;99.90
34135;DHT22;20410;55.578;12.968;2023-05-10T09:20:36;18.50;99.90
34135;DHT22;20410;55.578;12.968;2023-05-10T09:23:02;18.50;99.90
34135;DHT22;20410;55.578;12.968;2023-05-10T09:25:27;18.50;99.90
34135;DHT22;20410;55.578;12.968;2023-05-10T09:27:53;18.60;99.90
34135;DHT22;20410;55.578;12.968;2023-05-10T09:30:27;18.50;99.90
34135;DHT22;20410;55.578;12.968;2023-05-10T09:32:55;18.30;99.90
34135;DHT22;20410;55.578;12.968;2023-05-10T09:35:30;18.40;99.90
34135;DHT22;20410;55.578;12.968;2023-05-10T09:37:58;18.60;99.90
34135;DHT22;20410;55.578;12.968;2023-05-10T09:40:26;18.60;99.90
34135;DHT22;20410;55.578;12.968;2023-05-10T09:43:05;18.90;99.90
34135;DHT22;20410;55.578;12.968;2023-05-10T09:45:33;19.10;99.90
34135;DHT22;20410;55.578;12.968;2023-05-10T09:48:00;19.20;99.90
34135;DHT22;20410;55.578;12.968;2023-05-10T09:50:27;19.40;99.90
34135;DHT22;20410;55.578;12.968;2023-05-10T09:53:01;19.40;99.90
34135;DHT22;20410;55.578;12.968;2023-05-10T09:55:41;19.50;99.90
34135;DHT22;20410;55.578;12.968;2023-05-10T09:58:08;19.70;99.90
34135;DHT22;20410;55.578;12.968;2023-05-10T10:00:38;19.70;99.90
34135;DHT22;20410;55.578;12.968;2023-05-10T10:03:05;19.50;99.90
34135;DHT22;20410;55.578;12.968;2023-05-10T10:05:33;19.60;99.90
34135;DHT22;20410;55.578;12.968;2023-05-10T10:07:59;19.70;99.90
34135;DHT22;20410;55.578;12.968;2023-05-10T10:10:26;19.70;99.90
34135;DHT22;20410;55.578;12.968;2023-05-10T10:12:52;19.90;99.90
34135;DHT22;20410;55.578;12.968;2023-05-10T10:15:19;20.10;99.90
34135;DHT22;20410;55.578;12.968;2023-05-10T10:17:45;20.20;99.90
34135;DHT22;20410;55.578;12.968;2023-05-10T10:20:12;20.10;99.90
34135;DHT22;20410;55.578;12.968;2023-05-10T10:22:38;20.20;99.90
34135;DHT22;20410;55.578;12.968;2023-05-10T10:25:08;20.20;99.90
34135;DHT22;20410;55.578;12.968;2023-05-10T10:27:57;20.10;99.90
34135;DHT22;20410;55.578;12.968;2023-05-10T10:30:43;19.90;99.90
34135;DHT22;20410;55.578;12.968;2023-05-10T10:33:29;19.90;99.90
34135;DHT22;20410;55.578;12.968;2023-05-10T10:35:58;19.60;99.90
34135;DHT22;20410;55.578;12.968;2023-05-10T10:38:25;19.70;99.90
34135;DHT22;20410;55.578;12.968;2023-05-10T10:41:10;19.80;99.90
34135;DHT22;20410;55.578;12.968;2023-05-10T10:43:36;20.00;99.90
34135;DHT22;20410;55.578;12.968;2023-05-10T10:46:16;19.80;99.90
34135;DHT22;20410;55.578;12.968;2023-05-10T10:48:52;19.60;99.90
34135;DHT22;20410;55.578;12.968;2023-05-10T10:51:37;19.60;99.90
34135;DHT22;20410;55.578;12.968;2023-05-10T10:54:12;19.80;99.90
34135;DHT22;20410;55.578;12.968;2023-05-10T10:56:38;20.10;99.90
34135;DHT22;20410;55.578;12.968;2023-05-10T10:59:03;20.20;99.90
34135;DHT22;20410;55.578;12.968;2023-05-10T11:01:33;20.40;99.90
34135;DHT22;20410;55.578;12.968;2023-05-10T11:06:35;20.60;99.90
34135;DHT22;20410;55.578;12.968;2023-05-10T11:09:08;20.50;99.90
34135;DHT22;20410;55.578;12.968;2023-05-10T11:11:34;20.40;99.90
34135;DHT22;20410;55.578;12.968;2023-05-10T11:14:05;20.50;99.90
34135;DHT22;20410;55.578;12.968;2023-05-10T11:16:42;20.70;99.90
34135;DHT22;20410;55.578;12.968;2023-05-10T11:19:12;20.70;99.90
34135;DHT22;20410;55.578;12.968;2023-05-10T11:22:11;20.90;99.90
34135;DHT22;20410;55.578;12.968;2023-05-10T11:24:38;21.10;99.90
34135;DHT22;20410;55.578;12.968;2023-05-10T11:27:04;21.10;99.90
34135;DHT22;20410;55.578;12.968;2023-05-10T11:29:30;21.20;99.90
34135;DHT22;20410;55.578;12.968;2023-05-10T11:31:59;21.20;99.90
34135;DHT22;20410;55.578;12.968;2023-05-10T11:34:26;21.40;99.90
34135;DHT22;20410;55.578;12.968;2023-05-10T11:36:54;21.40;99.90
34135;DHT22;20410;55.578;12.968;2023-05-10T11:39:21;21.30;86.20
34135;DHT22;20410;55.578;12.968;2023-05-10T11:41:49;21.30;99.90
34135;DHT22;20410;55.578;12.968;2023-05-10T11:44:15;21.40;99.90
34135;DHT22;20410;55.578;12.968;2023-05-10T11:46:41;21.60;96.80
34135;DHT22;20410;55.578;12.968;2023-05-10T11:49:07;21.50;47.70
34135;DHT22;20410;55.578;12.968;2023-05-10T11:51:36;21.50;29.90
34135;DHT22;20410;55.578;12.968;2023-05-10T11:54:06;21.40;46.30
34135;DHT22;20410;55.578;12.968;2023-05-10T11:56:33;21.50;92.50
34135;DHT22;20410;55.578;12.968;2023-05-10T11:58:58;21.40;79.50
34135;DHT22;20410;55.578;12.968;2023-05-10T12:01:26;21.60;31.70
34135;DHT22;20410;55.578;12.968;2023-05-10T12:03:54;21.70;13.60
34135;DHT22;20410;55.578;12.968;2023-05-10T12:06:21;21.80;10.90
34135;DHT22;20410;55.578;12.968;2023-05-10T12:08:48;21.80;1.00
34135;DHT22;20410;55.578;12.968;2023-05-10T12:11:17;22.00;91.10
34135;DHT22;20410;55.578;12.968;2023-05-10T12:13:44;22.00;7.30
34135;DHT22;20410;55.578;12.968;2023-05-10T12:16:39;21.80;1.00
34135;DHT22;20410;55.578;12.968;2023-05-10T12:19:05;21.90;1.00
34135;DHT22;20410;55.578;12.968;2023-05-10T12:21:30;21.90;1.00
34135;DHT22;20410;55.578;12.968;2023-05-10T12:24:01;21.90;1.00
34135;DHT22;20410;55.578;12.968;2023-05-10T12:26:28;22.00;1.00
34135;DHT22;20410;55.578;12.968;2023-05-10T12:28:54;21.90;1.00
34135;DHT22;20410;55.578;12.968;2023-05-10T12:31:19;21.80;1.00
34135;DHT22;20410;55.578;12.968;2023-05-10T12:33:46;21.70;1.00
34135;DHT22;20410;55.578;12.968;2023-05-10T12:36:14;21.60;1.00
34135;DHT22;20410;55.578;12.968;2023-05-10T12:38:42;21.40;1.00
34135;DHT22;20410;55.578;12.968;2023-05-10T12:41:10;21.30;1.00
34135;DHT22;20410;55.578;12.968;2023-05-10T12:43:36;21.40;1.00
34135;DHT22;20410;55.578;12.968;2023-05-10T12:46:09;21.40;1.00
34135;DHT22;20410;55.578;12.968;2023-05-10T12:48:36;21.50;1.00
34135;DHT22;20410;55.578;12.968;2023-05-10T12:51:02;21.60;1.00
34135;DHT22;20410;55.578;12.968;2023-05-10T12:53:28;21.80;1.00
34135;DHT22;20410;55.578;12.968;2023-05-10T12:55:54;21.80;1.00
34135;DHT22;20410;55.578;12.968;2023-05-10T12:58:20;21.90;1.00
34135;DHT22;20410;55.578;12.968;2023-05-10T13:00:45;22.00;1.00
34135;DHT22;20410;55.578;12.968;2023-05-10T13:03:11;22.00;1.00
34135;DHT22;20410;55.578;12.968;2023-05-10T13:05:37;21.80;1.00
34135;DHT22;20410;55.578;12.968;2023-05-10T13:08:03;22.00;1.00
34135;DHT22;20410;55.578;12.968;2023-05-10T13:10:30;22.10;1.00
34135;DHT22;20410;55.578;12.968;2023-05-10T13:12:57;22.30;1.00
34135;DHT22;20410;55.578;12.968;2023-05-10T13:15:23;22.20;1.00
34135;DHT22;20410;55.578;12.968;2023-05-10T13:17:48;22.20;1.00
34135;DHT22;20410;55.578;12.968;2023-05-10T13:20:14;22.40;1.00
34135;DHT22;20410;55.578;12.968;2023-05-10T13:22:40;22.60;1.00
34135;DHT22;20410;55.578;12.968;2023-05-10T13:25:06;22.60;1.00
34135;DHT22;20410;55.578;12.968;2023-05-10T13:27:32;22.30;1.00
34135;DHT22;20410;55.578;12.968;2023-05-10T13:29:57;22.00;1.00
34135;DHT22;20410;55.578;12.968;2023-05-10T13:32:25;22.00;1.00
34135;DHT22;20410;55.578;12.968;2023-05-10T13:34:51;22.00;1.00
34135;DHT22;20410;55.578;12.968;2023-05-10T13:37:16;22.30;1.00
34135;DHT22;20410;55.578;12.968;2023-05-10T13:39:42;22.40;1.00
34135;DHT22;20410;55.578;12.968;2023-05-10T13:42:08;22.40;1.00
34135;DHT22;20410;55.578;12.968;2023-05-10T13:44:33;22.50;1.00
34135;DHT22;20410;55.578;12.968;2023-05-10T13:46:59;22.60;1.00
34135;DHT22;20410;55.578;12.968;2023-05-10T13:49:26;22.50;1.00
34135;DHT22;20410;55.578;12.968;2023-05-10T13:51:52;22.10;1.00
34135;DHT22;20410;55.578;12.968;2023-05-10T13:54:17;22.00;1.00
34135;DHT22;20410;55.578;12.968;2023-05-10T13:56:45;22.10;1.00
34135;DHT22;20410;55.578;12.968;2023-05-10T13:59:12;22.10;1.00
34135;DHT22;20410;55.578;12.968;2023-05-10T14:01:40;22.30;1.00
34135;DHT22;20410;55.578;12.968;2023-05-10T14:04:06;22.20;1.00
34135;DHT22;20410;55.578;12.968;2023-05-10T14:06:38;22.00;1.00
34135;DHT22;20410;55.578;12.968;2023-05-10T14:09:04;22.00;1.00
34135;DHT22;20410;55.578;12.968;2023-05-10T14:11:29;22.00;1.00
34135;DHT22;20410;55.578;12.968;2023-05-10T14:13:55;22.00;1.00
34135;DHT22;20410;55.578;12.968;2023-05-10T14:16:21;22.00;1.00
34135;DHT22;20410;55.578;12.968;2023-05-10T14:18:46;22.10;1.00
34135;DHT22;20410;55.578;12.968;2023-05-10T14:21:12;22.20;1.00
34135;DHT22;20410;55.578;12.968;2023-05-10T14:23:38;22.10;1.00
34135;DHT22;20410;55.578;12.968;2023-05-10T14:26:04;22.10;1.00
34135;DHT22;20410;55.578;12.968;2023-05-10T14:28:29;22.20;1.00
34135;DHT22;20410;55.578;12.968;2023-05-10T14:30:55;22.30;1.00
34135;DHT22;20410;55.578;12.968;2023-05-10T14:33:20;22.40;1.00
34135;DHT22;20410;55.578;12.968;2023-05-10T14:35:47;22.30;1.00
34135;DHT22;20410;55.578;12.968;2023-05-10T14:38:13;22.10;1.00
34135;DHT22;20410;55.578;12.968;2023-05-10T14:40:38;22.00;1.00
34135;DHT22;20410;55.578;12.968;2023-05-10T14:43:04;21.90;1.00
34135;DHT22;20410;55.578;12.968;2023-05-10T14:45:30;22.10;1.00
34135;DHT22;20410;55.578;12.968;2023-05-10T14:47:55;22.00;1.00
34135;DHT22;20410;55.578;12.968;2023-05-10T14:50:21;21.90;1.00
34135;DHT22;20410;55.578;12.968;2023-05-10T14:52:46;21.90;1.00
34135;DHT22;20410;55.578;12.968;2023-05-10T14:55:12;21.90;1.00
34135;DHT22;20410;55.578;12.968;2023-05-10T14:57:38;21.90;1.00
34135;DHT22;20410;55.578;12.968;2023-05-10T15:00:04;21.80;1.00
34135;DHT22;20410;55.578;12.968;2023-05-10T15:02:31;21.70;1.00
34135;DHT22;20410;55.578;12.968;2023-05-10T15:04:57;21.60;1.00
34135;DHT22;20410;55.578;12.968;2023-05-10T15:07:23;21.60;1.00
34135;DHT22;20410;55.578;12.968;2023-05-10T15:09:49;21.70;1.00
34135;DHT22;20410;55.578;12.968;2023-05-10T15:12:15;21.70;1.00
34135;DHT22;20410;55.578;12.968;2023-05-10T15:14:41;21.60;1.00
34135;DHT22;20410;55.578;12.968;2023-05-10T15:17:06;21.70;1.00
34135;DHT22;20410;55.578;12.968;2023-05-10T15:19:33;21.80;1.00
34135;DHT22;20410;55.578;12.968;2023-05-10T15:21:58;21.80;1.00
34135;DHT22;20410;55.578;12.968;2023-05-10T15:24:24;21.90;1.00
34135;DHT22;20410;55.578;12.968;2023-05-10T15:26:50;21.70;1.00
34135;DHT22;20410;55.578;12.968;2023-05-10T15:29:15;21.70;1.00
34135;DHT22;20410;55.578;12.968;2023-05-10T15:31:49;21.70;1.00
34135;DHT22;20410;55.578;12.968;2023-05-10T15:34:16;21.70;1.00
34135;DHT22;20410;55.578;12.968;2023-05-10T15:36:42;21.70;1.00
34135;DHT22;20410;55.578;12.968;2023-05-10T15:39:07;21.60;1.00
34135;DHT22;20410;55.578;12.968;2023-05-10T15:41:34;21.60;1.00
34135;DHT22;20410;55.578;12.968;2023-05-10T15:44:00;21.70;1.00